Time,TemperatureF,DewpointF,PressureIn,WindDirection,WindDirectionDegrees,WindSpeedMPH,WindSpeedGustMPH,Humidity,HourlyPrecipIn,Conditions,Clouds,dailyrainin,SoftwareType,DateUTC
2013-07-29 00:02:00,61.9,54.6,30.08,North,0,0.0,0.0,77,0.00,,,0.00,WUHU21623XXSP,2013-07-29 05:02:00,
2013-07-29 00:07:00,61.9,54.6,30.08,North,0,0.0,0.0,77,0.00,,,0.00,WUHU21623XXSP,2013-07-29 05:07:00,
2013-07-29 00:12:00,61.7,54.8,30.08,North,0,0.0,0.0,78,0.00,,,0.00,WUHU21623XXSP,2013-07-29 05:12:00,
2013-07-29 00:17:00,61.7,54.8,30.08,North,0,0.0,0.0,78,0.00,,,0.00,WUHU21623XXSP,2013-07-29 05:17:00,
2013-07-29 00:22:00,61.5,55.0,30.09,North,0,0.0,0.0,79,0.00,,,0.00,WUHU21623XXSP,2013-07-29 05:22:00,
2013-07-29 00:27:00,61.5,55.0,30.09,North,0,0.0,0.0,79,0.00,,,0.00,WUHU21623XXSP,2013-07-29 05:27:00,
2013-07-29 00:32:00,61.5,55.0,30.09,North,0,0.0,0.0,79,0.00,,,0.00,WUHU21623XXSP,2013-07-29 05:32:00,
2013-07-29 00:37:00,61.3,55.0,30.09,North,0,0.0,0.0,79,0.00,,,0.00,WUHU21623XXSP,2013-07-29 05:37:00,
2013-07-29 00:42:00,61.3,54.8,30.10,North,0,0.0,0.0,79,0.00,,,0.00,WUHU21623XXSP,2013-07-29 05:42:00,
2013-07-29 00:47:00,61.2,54.6,30.10,North,0,0.0,0.0,79,0.00,,,0.00,WUHU21623XXSP,2013-07-29 05:47:00,
2013-07-29 00:52:00,61.2,54.6,30.10,North,0,0.0,0.0,79,0.00,,,0.00,WUHU21623XXSP,2013-07-29 05:52:00,
2013-07-29 00:57:00,61.2,54.6,30.10,North,0,0.0,0.0,79,0.00,,,0.00,WUHU21623XXSP,2013-07-29 05:57:00,
2013-07-29 01:02:00,60.6,54.1,30.10,North,0,0.0,0.0,79,0.00,,,0.00,WUHU21623XXSP,2013-07-29 06:02:00,
2013-07-29 01:07:00,60.6,54.1,30.10,North,0,0.0,0.0,79,0.00,,,0.00,WUHU21623XXSP,2013-07-29 06:07:00,
2013-07-29 01:12:00,60.3,53.8,30.10,North,0,0.0,0.0,79,0.00,,,0.00,WUHU21623XXSP,2013-07-29 06:12:00,
2013-07-29 01:17:00,60.1,54.0,30.10,North,0,0.0,0.0,80,0.00,,,0.00,WUHU21623XXSP,2013-07-29 06:17:00,
2013-07-29 01:22:00,59.9,53.8,30.10,North,0,0.0,0.0,80,0.00,,,0.00,WUHU21623XXSP,2013-07-29 06:22:00,
2013-07-29 01:27:00,59.9,53.8,30.10,North,0,0.0,0.0,80,0.00,,,0.00,WUHU21623XXSP,2013-07-29 06:27:00,
2013-07-29 01:32:00,59.9,53.8,30.10,North,0,0.0,0.0,80,0.00,,,0.00,WUHU21623XXSP,2013-07-29 06:32:00,
2013-07-29 01:37:00,59.5,53.7,30.10,North,0,0.0,0.0,81,0.00,,,0.00,WUHU21623XXSP,2013-07-29 06:37:00,
2013-07-29 01:42:00,59.5,53.7,30.10,North,0,0.0,0.0,81,0.00,,,0.00,WUHU21623XXSP,2013-07-29 06:42:00,
2013-07-29 01:47:00,59.4,53.6,30.10,North,0,0.0,0.0,81,0.00,,,0.00,WUHU21623XXSP,2013-07-29 06:47:00,
2013-07-29 01:52:00,59.4,53.6,30.10,North,0,0.0,0.0,81,0.00,,,0.00,WUHU21623XXSP,2013-07-29 06:52:00,
2013-07-29 01:57:00,59.4,53.6,30.10,North,0,0.0,0.0,81,0.00,,,0.00,WUHU21623XXSP,2013-07-29 06:57:00,
2013-07-29 02:02:00,59.4,53.6,30.10,North,0,0.0,0.0,81,0.00,,,0.00,WUHU21623XXSP,2013-07-29 07:02:00,
2013-07-29 02:07:00,59.4,53.9,30.10,North,0,0.0,0.0,82,0.00,,,0.00,WUHU21623XXSP,2013-07-29 07:07:00,
2013-07-29 02:12:00,59.4,53.9,30.10,North,0,0.0,0.0,82,0.00,,,0.00,WUHU21623XXSP,2013-07-29 07:12:00,
2013-07-29 02:17:00,59.4,53.6,30.10,North,0,0.0,0.0,81,0.00,,,0.00,WUHU21623XXSP,2013-07-29 07:17:00,
2013-07-29 02:22:00,59.4,53.6,30.10,North,0,0.0,0.0,81,0.00,,,0.00,WUHU21623XXSP,2013-07-29 07:22:00,
2013-07-29 02:27:00,59.2,53.7,30.09,North,0,0.0,0.0,82,0.00,,,0.00,WUHU21623XXSP,2013-07-29 07:27:00,
2013-07-29 02:32:00,59.0,53.4,30.09,North,0,0.0,0.0,81,0.00,,,0.00,WUHU21623XXSP,2013-07-29 07:32:00,
2013-07-29 02:37:00,58.8,53.3,30.09,North,0,0.0,0.0,82,0.00,,,0.00,WUHU21623XXSP,2013-07-29 07:37:00,
2013-07-29 02:42:00,58.8,53.3,30.09,North,0,0.0,0.0,82,0.00,,,0.00,WUHU21623XXSP,2013-07-29 07:42:00,
2013-07-29 02:47:00,58.8,53.3,30.09,North,0,0.0,0.0,82,0.00,,,0.00,WUHU21623XXSP,2013-07-29 07:47:00,
2013-07-29 02:52:00,58.8,53.3,30.10,North,0,0.0,0.0,82,0.00,,,0.00,WUHU21623XXSP,2013-07-29 07:52:00,
2013-07-29 02:57:00,58.6,53.3,30.10,North,0,0.0,0.0,83,0.00,,,0.00,WUHU21623XXSP,2013-07-29 07:57:00,
2013-07-29 03:02:00,58.6,53.5,30.10,North,0,0.0,0.0,83,0.00,,,0.00,WUHU21623XXSP,2013-07-29 08:02:00,
2013-07-29 03:07:00,58.5,53.3,30.10,North,0,0.0,0.0,83,0.00,,,0.00,WUHU21623XXSP,2013-07-29 08:07:00,
2013-07-29 03:12:00,58.5,53.3,30.10,North,0,0.0,0.0,83,0.00,,,0.00,WUHU21623XXSP,2013-07-29 08:12:00,
2013-07-29 03:17:00,58.3,53.1,30.10,North,0,0.0,0.0,83,0.00,,,0.00,WUHU21623XXSP,2013-07-29 08:17:00,
2013-07-29 13:22:00,69.4,61.5,30.16,North,0,0.0,0.0,76,0.00,,,0.00,WUHU21623XXSP,2013-07-29 18:22:00,
2013-07-29 13:27:00,69.4,61.5,30.16,North,0,0.0,0.0,76,0.00,,,0.00,WUHU21623XXSP,2013-07-29 18:27:00,
2013-07-29 13:32:00,69.4,61.9,30.15,North,0,0.0,0.0,77,0.00,,,0.00,WUHU21623XXSP,2013-07-29 18:32:00,
2013-07-29 13:38:00,69.6,62.0,30.15,North,0,0.0,0.0,77,0.00,,,0.00,WUHU21623XXSP,2013-07-29 18:38:00,
2013-07-29 13:43:00,69.6,62.0,30.15,North,0,0.0,0.0,76,0.00,,,0.00,WUHU21623XXSP,2013-07-29 18:43:00,
2013-07-29 13:48:00,69.6,61.6,30.16,North,0,0.0,0.0,76,0.00,,,0.00,WUHU21623XXSP,2013-07-29 18:48:00,
2013-07-29 13:53:00,69.6,61.6,30.15,North,0,0.0,0.0,76,0.00,,,0.00,WUHU21623XXSP,2013-07-29 18:53:00,
2013-07-29 13:58:00,69.6,61.6,30.15,North,0,0.0,0.0,76,0.00,,,0.00,WUHU21623XXSP,2013-07-29 18:58:00,
2013-07-29 14:03:00,69.6,61.6,30.15,North,0,0.0,0.0,76,0.00,,,0.00,WUHU21623XXSP,2013-07-29 19:03:00,
2013-07-29 14:08:00,69.6,62.0,30.15,North,0,0.0,0.0,77,0.00,,,0.00,WUHU21623XXSP,2013-07-29 19:08:00,
2013-07-29 14:14:00,69.6,62.0,30.15,North,0,0.0,0.0,77,0.00,,,0.00,WUHU21623XXSP,2013-07-29 19:14:00,
2013-07-29 23:23:00,67.3,64.2,30.09,North,0,0.0,0.0,90,0.00,,,0.00,WUHU21623XXSP,2013-07-30 04:23:00,
2013-07-29 23:25:00,67.3,64.2,30.09,North,0,0.0,0.0,90,0.00,,,0.00,WUHU21623XXSP,2013-07-30 04:25:00,
2013-07-29 23:28:00,67.3,64.2,30.09,North,0,0.0,0.0,90,0.00,,,0.00,WUHU21623XXSP,2013-07-30 04:28:00,
2013-07-29 23:33:00,67.3,64.2,30.09,North,0,0.0,0.0,90,0.00,,,0.00,WUHU21623XXSP,2013-07-30 04:33:00,
2013-07-29 23:38:00,67.3,64.2,30.09,North,0,0.0,0.0,90,0.00,,,0.00,WUHU21623XXSP,2013-07-30 04:38:00,
2013-07-29 23:43:00,67.3,64.2,30.09,North,0,0.0,0.0,90,0.00,,,0.00,WUHU21623XXSP,2013-07-30 04:43:00,
2013-07-29 23:48:00,67.3,64.2,30.09,North,0,0.0,0.0,90,0.00,,,0.00,WUHU21623XXSP,2013-07-30 04:48:00,
2013-07-29 23:53:00,67.5,64.4,30.09,North,0,0.0,0.0,90,0.00,,,0.00,WUHU21623XXSP,2013-07-30 04:53:00,
2013-07-29 23:58:00,67.5,64.4,30.09,North,0,0.0,0.0,90,0.00,,,0.00,WUHU21623XXSP,2013-07-30 04:58:00,